MYR weather

Myrtle Beach International Airport
Myrtle Beach, South Carolina, United States

Public forecast

Using degrees Fahrenheit for public forecast. Weather courtesy of forecast.io.

METAR (pilot weather report)

Retrieved 2019/06/16 22:56 UTC (60 minutes ago):

KMYR 162256Z 19012KT 10SM CLR 28/24 A3004 RMK AO2 SLP170 T02780239

TAF (pilot weather forecast)

Retrieved 2019/06/16 18:24 UTC (6 hours ago):

TAF KMYR 161721Z 1618/1718 18011KT P6SM SCT040 FM170000 20008KT P6SM FEW250 FM170600 22005KT P6SM BKN010 FM171200 20008KT P6SM SKC